createdAt,value
2024-04-22T00:00:18.682Z,22.48
2024-04-22T00:01:18.832Z,22.48
2024-04-22T00:02:18.921Z,22.47
2024-04-22T00:03:18.977Z,22.48
2024-04-22T00:04:19.151Z,22.50
2024-04-22T00:05:19.204Z,22.50
2024-04-22T00:06:19.348Z,22.47
2024-04-22T00:07:19.407Z,22.50
2024-04-22T00:08:19.512Z,22.47
2024-04-22T00:09:19.622Z,22.47
2024-04-22T00:10:19.755Z,22.48
2024-04-22T00:11:19.864Z,22.48
2024-04-22T00:12:19.947Z,22.50
2024-04-22T00:13:20.039Z,22.48
2024-04-22T00:14:20.119Z,22.48
2024-04-22T00:15:20.302Z,22.50
2024-04-22T00:16:20.425Z,22.51
2024-04-22T00:17:21.010Z,22.51
2024-04-22T00:18:20.555Z,22.48
2024-04-22T00:19:20.676Z,22.51
2024-04-22T00:20:20.754Z,22.50
2024-04-22T00:21:20.889Z,22.51
2024-04-22T00:22:21.017Z,22.51
2024-04-22T00:23:21.076Z,22.51
2024-04-22T00:24:21.169Z,22.50
2024-04-22T00:25:21.310Z,22.51
2024-04-22T00:26:21.373Z,22.51
2024-04-22T00:27:21.469Z,22.51
2024-04-22T00:28:21.615Z,22.50
2024-04-22T00:29:21.683Z,22.51
2024-04-22T00:30:21.813Z,22.48
2024-04-22T00:31:21.983Z,22.48
2024-04-22T00:32:22.022Z,22.50
2024-04-22T00:33:22.179Z,22.54
2024-04-22T00:34:22.323Z,22.51
2024-04-22T00:35:22.313Z,22.50
2024-04-22T00:36:22.414Z,22.51
2024-04-22T00:37:22.595Z,22.51
2024-04-22T00:38:22.647Z,22.48
2024-04-22T00:39:22.747Z,22.51
2024-04-22T00:40:22.907Z,22.50
2024-04-22T00:41:22.979Z,22.50
2024-04-22T00:42:23.081Z,22.50
2024-04-22T00:43:23.177Z,22.50
2024-04-22T00:44:23.256Z,22.47
2024-04-22T00:45:23.360Z,22.50
2024-04-22T00:46:23.555Z,22.50
2024-04-22T00:47:23.665Z,22.50
2024-04-22T00:48:23.693Z,22.53
2024-04-22T00:49:23.831Z,22.47
2024-04-22T00:50:23.891Z,22.51
2024-04-22T00:51:24.025Z,22.51
2024-04-22T00:52:24.163Z,22.50
2024-04-22T00:53:24.223Z,22.50
2024-04-22T00:54:24.349Z,22.50
2024-04-22T00:55:24.469Z,22.50
2024-04-22T00:56:24.549Z,22.48
2024-04-22T00:57:24.640Z,22.51
2024-04-22T00:58:24.809Z,22.48
2024-04-22T00:59:24.842Z,22.50
2024-04-22T01:00:24.979Z,22.48
2024-04-22T01:01:25.131Z,22.50
2024-04-22T01:02:25.189Z,22.48
2024-04-22T01:03:25.310Z,22.48
2024-04-22T01:04:25.449Z,22.47
2024-04-22T01:05:25.510Z,22.47
2024-04-22T01:06:25.627Z,22.50
2024-04-22T01:07:25.731Z,22.48
2024-04-22T01:08:25.833Z,22.47
2024-04-22T01:09:25.934Z,22.50
2024-04-22T01:10:26.131Z,22.51
2024-04-22T01:11:26.208Z,22.48
2024-04-22T01:12:26.266Z,22.48
2024-04-22T01:13:26.432Z,22.48
2024-04-22T01:14:26.516Z,22.48
2024-04-22T01:15:26.606Z,22.48
2024-04-22T01:16:26.769Z,22.51
2024-04-22T01:17:26.912Z,22.50
2024-04-22T01:18:27.030Z,22.48
2024-04-22T01:19:27.050Z,22.50
2024-04-22T01:20:27.142Z,22.47
2024-04-22T01:21:27.250Z,22.47
2024-04-22T01:22:27.410Z,22.48
2024-04-22T01:23:27.464Z,22.48
2024-04-22T01:24:27.577Z,22.48
2024-04-22T01:25:27.710Z,22.50
2024-04-22T01:26:27.794Z,22.47
2024-04-22T01:27:27.893Z,22.47
2024-04-22T01:28:28.019Z,22.50
2024-04-22T01:29:28.093Z,22.47
2024-04-22T01:30:28.185Z,22.46
2024-04-22T01:31:28.330Z,22.47
2024-04-22T01:32:28.499Z,22.47
2024-04-22T01:33:28.544Z,22.47
2024-04-22T01:34:28.677Z,22.47
2024-04-22T01:35:28.730Z,22.50
2024-04-22T01:36:28.851Z,22.47
2024-04-22T01:37:28.951Z,22.48
2024-04-22T01:38:29.039Z,22.46
2024-04-22T01:39:29.162Z,22.46
2024-04-22T01:40:29.236Z,22.46
2024-04-22T01:41:29.402Z,22.47
2024-04-22T01:42:29.457Z,22.44
2024-04-22T01:43:29.592Z,22.44
2024-04-22T01:44:29.659Z,22.47
2024-04-22T01:45:29.770Z,22.46
2024-04-22T01:46:30.041Z,22.47
2024-04-22T01:47:30.066Z,22.46
2024-04-22T01:48:30.100Z,22.44
2024-04-22T01:49:30.235Z,22.44
2024-04-22T01:50:30.328Z,22.46
2024-04-22T01:51:30.479Z,22.43
2024-04-22T01:52:30.578Z,22.44
2024-04-22T01:53:30.668Z,22.44
2024-04-22T01:54:30.769Z,22.44
2024-04-22T01:55:30.940Z,22.44
2024-04-22T01:56:31.039Z,22.42
2024-04-22T01:57:31.084Z,22.44
2024-04-22T01:58:31.274Z,22.42
2024-04-22T01:59:31.342Z,22.43
2024-04-22T02:00:31.452Z,22.43
2024-04-22T02:01:31.630Z,22.43
2024-04-22T02:02:31.759Z,22.44
2024-04-22T02:03:31.808Z,22.43
2024-04-22T02:04:31.929Z,22.43
2024-04-22T02:05:32.008Z,22.44
2024-04-22T02:06:32.130Z,22.43
2024-04-22T02:07:32.210Z,22.44
2024-04-22T02:08:32.331Z,22.43
2024-04-22T02:09:32.406Z,22.44
2024-04-22T02:10:32.588Z,22.46
2024-04-22T02:11:32.786Z,22.44
2024-04-22T02:12:32.786Z,22.44
2024-04-22T02:13:32.977Z,22.46
2024-04-22T02:14:32.944Z,22.44
2024-04-22T02:15:33.062Z,22.44
2024-04-22T02:16:33.196Z,22.44
2024-04-22T02:17:33.398Z,22.43
2024-04-22T02:18:33.391Z,22.44
2024-04-22T02:19:33.511Z,22.46
2024-04-22T02:20:33.580Z,22.46
2024-04-22T02:21:33.718Z,22.43
2024-04-22T02:22:33.951Z,22.46
2024-04-22T02:23:33.904Z,22.43
2024-04-22T02:24:34.020Z,22.44
2024-04-22T02:25:34.153Z,22.44
2024-04-22T02:26:34.251Z,22.46
2024-04-22T02:27:34.353Z,22.46
2024-04-22T02:28:34.486Z,22.43
2024-04-22T02:29:34.576Z,22.44
2024-04-22T02:30:34.678Z,22.44
2024-04-22T02:31:34.852Z,22.44
2024-04-22T02:32:34.947Z,22.44
2024-04-22T02:33:35.117Z,22.42
2024-04-22T02:34:35.116Z,22.43
2024-04-22T02:35:35.198Z,22.44
2024-04-22T02:36:35.307Z,22.44
2024-04-22T02:37:35.463Z,22.43
2024-04-22T02:38:35.543Z,22.46
2024-04-22T02:39:35.657Z,22.44
2024-04-22T02:40:35.828Z,22.44
2024-04-22T02:41:35.849Z,22.46
2024-04-22T02:42:35.944Z,22.46
2024-04-22T02:43:36.112Z,22.44
2024-04-22T02:44:36.171Z,22.44
2024-04-22T02:45:36.291Z,22.46
2024-04-22T02:46:36.475Z,22.42
2024-04-22T02:47:36.649Z,22.44
2024-04-22T02:48:36.595Z,22.43
2024-04-22T02:49:36.866Z,22.44
2024-04-22T02:50:36.815Z,22.43
2024-04-22T02:51:36.928Z,22.43
2024-04-22T02:52:37.125Z,22.43
2024-04-22T02:53:37.128Z,22.44
2024-04-22T02:54:37.248Z,22.43
2024-04-22T02:55:37.491Z,22.44
2024-04-22T02:56:37.484Z,22.46
2024-04-22T02:57:37.673Z,22.44
2024-04-22T02:58:39.201Z,22.44
2024-04-22T02:59:37.697Z,22.44
2024-04-22T03:00:37.727Z,22.46
2024-04-22T03:01:37.752Z,22.43
2024-04-22T03:02:37.812Z,22.44
2024-04-22T03:03:37.868Z,22.46
2024-04-22T03:04:37.783Z,22.44
2024-04-22T03:05:37.775Z,22.43
2024-04-22T03:06:37.787Z,22.44
2024-04-22T03:07:37.905Z,22.46
2024-04-22T03:08:37.791Z,22.44
2024-04-22T03:09:37.802Z,22.42
2024-04-22T03:10:37.848Z,22.43
2024-04-22T03:11:37.845Z,22.46
2024-04-22T03:12:37.854Z,22.42
2024-04-22T03:13:37.881Z,22.42
2024-04-22T03:14:37.849Z,22.43
2024-04-22T03:15:37.880Z,22.44
2024-04-22T03:16:37.881Z,22.46
2024-04-22T03:17:37.944Z,22.47
2024-04-22T03:18:37.875Z,22.47
2024-04-22T03:19:38.011Z,22.48
2024-04-22T03:20:37.940Z,22.48
2024-04-22T03:21:37.903Z,22.47
2024-04-22T03:22:38.019Z,22.50
2024-04-22T03:23:37.900Z,22.48
2024-04-22T03:24:37.906Z,22.51
2024-04-22T03:25:38.107Z,22.51
2024-04-22T03:26:37.935Z,22.54
2024-04-22T03:27:37.921Z,22.51
2024-04-22T03:28:37.982Z,22.51
2024-04-22T03:29:37.945Z,22.53
2024-04-22T03:30:37.958Z,22.53
2024-04-22T03:31:38.066Z,22.53
2024-04-22T03:32:38.024Z,22.53
2024-04-22T03:33:37.970Z,22.56
2024-04-22T03:34:38.011Z,22.56
2024-04-22T03:35:38.001Z,22.57
2024-04-22T03:36:38.014Z,22.57
2024-04-22T03:37:38.091Z,22.58
2024-04-22T03:38:38.031Z,22.57
2024-04-22T03:39:38.051Z,22.58
2024-04-22T03:40:38.147Z,22.60
2024-04-22T03:41:38.037Z,22.58
2024-04-22T03:42:38.111Z,22.60
2024-04-22T03:43:38.186Z,22.61
2024-04-22T03:44:38.035Z,22.60
2024-04-22T03:45:38.114Z,22.60
2024-04-22T03:46:38.205Z,22.61
2024-04-22T03:47:38.207Z,22.61
2024-04-22T03:48:38.142Z,22.63
2024-04-22T03:49:38.182Z,22.63
2024-04-22T03:50:38.190Z,22.61
2024-04-22T03:51:38.267Z,22.63
2024-04-22T03:52:38.354Z,22.63
2024-04-22T03:53:38.350Z,22.63
2024-04-22T03:54:38.400Z,22.64
2024-04-22T03:55:38.599Z,22.61
2024-04-22T03:56:38.546Z,22.63
2024-04-22T03:57:38.656Z,22.66
2024-04-22T03:58:38.767Z,22.61
2024-04-22T03:59:38.824Z,22.66
2024-04-22T04:00:38.900Z,22.64
2024-04-22T04:01:38.981Z,22.66
2024-04-22T04:02:39.050Z,22.66
2024-04-22T04:03:39.222Z,22.64
2024-04-22T04:04:39.403Z,22.64
2024-04-22T04:05:39.483Z,22.64
2024-04-22T04:06:39.464Z,22.66
2024-04-22T04:07:39.659Z,22.66
2024-04-22T04:08:39.653Z,22.67
2024-04-22T04:09:39.722Z,22.64
2024-04-22T04:10:39.846Z,22.66
2024-04-22T04:11:39.912Z,22.67
2024-04-22T04:12:40.049Z,22.66
2024-04-22T04:13:40.184Z,22.66
2024-04-22T04:14:40.201Z,22.67
2024-04-22T04:15:40.298Z,22.67
2024-04-22T04:16:40.527Z,22.68
2024-04-22T04:17:40.599Z,22.66
2024-04-22T04:18:40.573Z,22.66
2024-04-22T04:19:40.757Z,22.67
2024-04-22T04:20:40.771Z,22.67
2024-04-22T04:21:40.860Z,22.67
2024-04-22T04:22:41.134Z,22.68
2024-04-22T04:23:41.060Z,22.68
2024-04-22T04:24:41.161Z,22.71
2024-04-22T04:25:41.287Z,22.67
2024-04-22T04:26:41.315Z,22.68
2024-04-22T04:27:41.415Z,22.68
2024-04-22T04:28:41.522Z,22.68
2024-04-22T04:29:41.602Z,22.68
2024-04-22T04:30:41.690Z,22.70
2024-04-22T04:31:41.867Z,22.68
2024-04-22T04:32:41.942Z,22.68
2024-04-22T04:33:41.956Z,22.68
2024-04-22T04:34:42.103Z,22.68
2024-04-22T04:35:42.153Z,22.68
2024-04-22T04:36:42.261Z,22.70
2024-04-22T04:37:42.409Z,22.70
2024-04-22T04:38:42.416Z,22.70
2024-04-22T04:39:42.514Z,22.71
2024-04-22T04:40:42.622Z,22.71
2024-04-22T04:41:42.709Z,22.70
2024-04-22T04:42:42.771Z,22.70
2024-04-22T04:43:42.960Z,22.70
2024-04-22T04:44:50.301Z,22.67
2024-04-22T04:45:50.307Z,22.67
2024-04-22T04:46:50.379Z,22.68
2024-04-22T04:47:50.412Z,22.68
2024-04-22T04:48:53.395Z,22.68
2024-04-22T04:49:50.423Z,22.70
2024-04-22T04:50:50.378Z,22.70
2024-04-22T04:51:50.451Z,22.71
2024-04-22T04:52:50.429Z,22.68
2024-04-22T04:53:50.446Z,22.71
2024-04-22T04:54:53.212Z,22.71
2024-04-22T04:55:50.572Z,22.70
2024-04-22T04:56:50.483Z,22.71
2024-04-22T04:57:50.484Z,22.70
2024-04-22T04:58:50.637Z,22.70
2024-04-22T04:59:50.564Z,22.70
2024-04-22T05:00:50.640Z,22.71
2024-04-22T05:01:50.725Z,22.72
2024-04-22T05:02:50.668Z,22.71
2024-04-22T05:03:50.606Z,22.70
2024-04-22T05:04:50.644Z,22.71
2024-04-22T05:05:50.659Z,22.72
2024-04-22T05:06:50.699Z,22.72
2024-04-22T05:07:50.699Z,22.74
2024-04-22T05:08:50.732Z,22.71
2024-04-22T05:09:50.734Z,22.70
2024-04-22T05:10:50.812Z,22.74
2024-04-22T05:11:50.822Z,22.70
2024-04-22T05:12:53.531Z,22.72
2024-04-22T05:13:50.808Z,22.71
2024-04-22T05:14:50.793Z,22.71
2024-04-22T05:15:50.821Z,22.72
2024-04-22T05:16:50.915Z,22.70
2024-04-22T05:17:50.926Z,22.72
2024-04-22T05:18:50.912Z,22.72
2024-04-22T05:19:50.864Z,22.72
2024-04-22T05:20:50.901Z,22.70
2024-04-22T05:21:50.995Z,22.72
2024-04-22T05:22:50.966Z,22.70
2024-04-22T05:23:50.974Z,22.70
2024-04-22T05:24:50.969Z,22.70
2024-04-22T05:25:51.047Z,22.68
2024-04-22T05:26:51.062Z,22.70
2024-04-22T05:27:51.040Z,22.70
2024-04-22T05:28:51.126Z,22.71
2024-04-22T05:29:51.072Z,22.72
2024-04-22T05:30:51.084Z,22.71
2024-04-22T05:31:51.219Z,22.71
2024-04-22T05:32:51.263Z,22.71
2024-04-22T05:33:51.269Z,22.71
2024-04-22T05:34:51.335Z,22.72
2024-04-22T05:35:51.419Z,22.70
2024-04-22T05:36:51.505Z,22.72
2024-04-22T05:37:51.569Z,22.71
2024-04-22T05:38:51.729Z,22.72
2024-04-22T05:39:51.760Z,22.68
2024-04-22T05:40:51.869Z,22.68
2024-04-22T05:41:51.918Z,22.71
2024-04-22T05:42:51.993Z,22.70
2024-04-22T05:43:52.142Z,22.71
2024-04-22T05:44:52.138Z,22.70
2024-04-22T05:45:52.244Z,22.71
2024-04-22T05:46:52.360Z,22.70
2024-04-22T05:47:52.513Z,22.70
2024-04-22T05:48:52.469Z,22.71
2024-04-22T05:49:52.568Z,22.72
2024-04-22T05:50:52.649Z,22.71
2024-04-22T05:51:52.756Z,22.70
2024-04-22T05:52:52.863Z,22.68
2024-04-22T05:53:52.982Z,22.71
2024-04-22T05:54:52.997Z,22.70
2024-04-22T05:55:53.072Z,22.70
2024-04-22T05:56:53.150Z,22.70
2024-04-22T05:57:53.242Z,22.71
2024-04-22T05:58:53.333Z,22.72
2024-04-22T05:59:53.393Z,22.70
2024-04-22T06:00:53.512Z,22.72
2024-04-22T06:01:53.675Z,22.70
2024-04-22T06:02:53.639Z,22.68
2024-04-22T06:03:53.837Z,22.68
2024-04-22T06:04:53.906Z,22.68
2024-04-22T06:05:53.889Z,22.67
2024-04-22T06:06:53.990Z,22.68
2024-04-22T06:07:54.081Z,22.70
2024-04-22T06:08:54.159Z,22.67
2024-04-22T06:09:54.253Z,22.70
2024-04-22T06:10:54.369Z,22.68
2024-04-22T06:12:07.352Z,22.67
2024-04-22T06:12:55.447Z,22.68
2024-04-22T06:13:54.443Z,22.67
2024-04-22T06:14:54.495Z,22.68
2024-04-22T06:15:54.526Z,22.67
2024-04-22T06:16:54.562Z,22.68
2024-04-22T06:17:54.591Z,22.68
2024-04-22T06:18:54.635Z,22.66
2024-04-22T06:19:54.604Z,22.68
2024-04-22T06:20:54.688Z,22.67
2024-04-22T06:21:54.715Z,22.66
2024-04-22T06:22:54.862Z,22.67
2024-04-22T06:23:54.869Z,22.68
2024-04-22T06:24:54.935Z,22.66
2024-04-22T06:25:55.076Z,22.67
2024-04-22T06:26:55.186Z,22.66
2024-04-22T06:27:55.190Z,22.68
2024-04-22T06:28:55.272Z,22.68
2024-04-22T06:29:55.323Z,22.68
2024-04-22T06:30:55.396Z,22.67
2024-04-22T06:31:55.648Z,22.68
2024-04-22T06:32:55.571Z,22.70
2024-04-22T06:33:55.623Z,22.70
2024-04-22T06:34:55.687Z,22.70
2024-04-22T06:35:55.789Z,22.70
2024-04-22T06:36:55.867Z,22.71
2024-04-22T06:37:55.885Z,22.71
2024-04-22T06:38:55.993Z,22.72
2024-04-22T06:39:56.032Z,22.78
2024-04-22T06:40:56.107Z,22.75
2024-04-22T06:41:56.159Z,22.78
2024-04-22T06:42:56.193Z,22.78
2024-04-22T06:43:56.335Z,22.77
2024-04-22T06:44:56.328Z,22.79
2024-04-22T06:45:56.385Z,22.83
2024-04-22T06:46:56.625Z,22.83
2024-04-22T06:47:56.611Z,22.83
2024-04-22T06:48:56.543Z,22.86
2024-04-22T06:49:56.671Z,22.86
2024-04-22T06:50:56.662Z,22.84
2024-04-22T06:51:56.724Z,22.84
2024-04-22T06:52:56.778Z,22.87
2024-04-22T06:53:56.864Z,22.83
2024-04-22T06:54:56.914Z,22.81
2024-04-22T06:55:57.060Z,22.84
2024-04-22T06:56:57.084Z,22.83
2024-04-22T06:57:57.148Z,22.86
2024-04-22T06:58:57.262Z,22.84
2024-04-22T06:59:57.300Z,22.86
2024-04-22T07:00:57.385Z,22.86
2024-04-22T07:01:57.491Z,22.87
2024-04-22T07:02:57.619Z,22.88
2024-04-22T07:03:57.720Z,22.87
2024-04-22T07:04:57.736Z,22.87
2024-04-22T07:05:57.753Z,22.90
2024-04-22T07:06:57.864Z,22.87
2024-04-22T07:07:57.982Z,22.87
2024-04-22T07:08:58.017Z,22.88
2024-04-22T07:09:58.110Z,22.87
2024-04-22T07:10:58.287Z,22.90
2024-04-22T07:11:58.293Z,22.93
2024-04-22T07:12:58.420Z,22.91
2024-04-22T07:13:58.483Z,22.91
2024-04-22T07:14:58.612Z,22.94
2024-04-22T07:15:58.644Z,22.91
2024-04-22T07:16:58.886Z,22.95
2024-04-22T07:17:58.850Z,22.94
2024-04-22T07:18:58.931Z,22.95
2024-04-22T07:19:58.997Z,22.97
2024-04-22T07:20:59.099Z,22.95
2024-04-22T07:21:59.196Z,22.97
2024-04-22T07:22:59.258Z,22.98
2024-04-22T07:23:59.341Z,22.97
2024-04-22T07:25:04.014Z,22.97
2024-04-22T07:26:00.433Z,22.98
2024-04-22T07:26:59.490Z,22.97
2024-04-22T07:28:00.970Z,22.97
2024-04-22T07:28:59.538Z,22.98
2024-04-22T07:29:59.596Z,22.97
2024-04-22T07:30:59.593Z,22.97
2024-04-22T07:31:59.598Z,22.98
2024-04-22T07:32:59.687Z,23.01
2024-04-22T07:33:59.634Z,22.98
2024-04-22T07:34:59.708Z,22.97
2024-04-22T07:35:59.700Z,23.04
2024-04-22T07:36:59.783Z,23.01
2024-04-22T07:37:59.774Z,23.01
2024-04-22T07:38:59.782Z,23.02
2024-04-22T07:39:59.831Z,22.99
2024-04-22T07:40:59.834Z,22.99
2024-04-22T07:42:00.210Z,22.99
2024-04-22T07:42:59.906Z,22.99
2024-04-22T07:43:59.911Z,23.04
2024-04-22T07:44:59.931Z,23.01
2024-04-22T07:45:59.955Z,23.01
2024-04-22T07:47:00.157Z,23.02
2024-04-22T07:48:00.365Z,22.99
2024-04-22T07:49:00.226Z,23.01
2024-04-22T07:50:00.390Z,23.01
2024-04-22T07:51:00.452Z,23.02
2024-04-22T07:52:00.569Z,23.02
2024-04-22T07:53:00.630Z,23.04
2024-04-22T07:54:00.758Z,23.05
2024-04-22T07:55:00.882Z,23.05
2024-04-22T07:56:00.921Z,23.07
2024-04-22T07:57:01.056Z,23.08
2024-04-22T07:58:01.140Z,23.08
2024-04-22T07:59:01.282Z,23.11
2024-04-22T08:00:01.526Z,23.12
2024-04-22T08:01:01.587Z,23.14
2024-04-22T08:02:01.690Z,23.17
2024-04-22T08:03:02.003Z,23.12
2024-04-22T08:04:01.993Z,23.15
2024-04-22T08:05:03.007Z,23.18
2024-04-22T08:06:02.293Z,23.19
2024-04-22T08:07:02.408Z,23.19
2024-04-22T08:08:02.543Z,23.22
2024-04-22T08:09:02.648Z,23.21
2024-04-22T08:10:02.755Z,23.26
2024-04-22T08:11:02.883Z,23.26
2024-04-22T08:12:03.077Z,23.29
2024-04-22T08:13:03.204Z,23.30
2024-04-22T08:14:03.562Z,23.33
2024-04-22T08:15:03.558Z,23.35
2024-04-22T08:16:03.552Z,23.38
2024-04-22T08:17:03.822Z,23.38
2024-04-22T08:18:03.949Z,23.37
2024-04-22T08:19:03.961Z,23.39
2024-04-22T08:20:04.100Z,23.37
2024-04-22T08:21:04.262Z,23.37
2024-04-22T08:22:04.394Z,23.39
2024-04-22T08:23:04.520Z,23.39
2024-04-22T08:24:04.629Z,23.44
2024-04-22T08:25:04.750Z,23.48
2024-04-22T08:26:04.895Z,23.45
2024-04-22T08:27:05.048Z,23.45
2024-04-22T08:28:05.154Z,23.46
2024-04-22T08:29:05.336Z,23.48
2024-04-22T08:30:05.398Z,23.49
2024-04-22T08:31:05.531Z,23.45
2024-04-22T08:32:05.681Z,23.49
2024-04-22T08:33:05.826Z,23.52
2024-04-22T08:34:05.900Z,23.55
2024-04-22T08:35:06.030Z,23.56
2024-04-22T08:36:06.238Z,23.55
2024-04-22T08:37:06.486Z,23.55
2024-04-22T08:38:07.790Z,23.55
2024-04-22T08:39:06.733Z,23.56
2024-04-22T08:40:06.721Z,23.56
2024-04-22T08:41:06.956Z,23.55
2024-04-22T08:42:07.030Z,23.59
2024-04-22T08:43:07.095Z,23.58
2024-04-22T08:44:07.254Z,23.58
2024-04-22T08:45:07.407Z,23.60
2024-04-22T08:46:07.539Z,23.58
2024-04-22T08:47:07.716Z,23.59
2024-04-22T08:48:07.840Z,23.58
2024-04-22T08:49:07.914Z,23.58
2024-04-22T08:50:08.030Z,23.59
2024-04-22T08:51:08.174Z,23.59
2024-04-22T08:52:08.300Z,23.58
2024-04-22T08:53:08.587Z,23.55
2024-04-22T08:54:08.564Z,23.56
2024-04-22T08:55:08.677Z,23.56
2024-04-22T08:56:08.781Z,23.53
2024-04-22T08:57:08.924Z,23.56
2024-04-22T08:58:09.049Z,23.55
2024-04-22T08:59:15.820Z,23.56
2024-04-22T09:00:10.172Z,23.53
2024-04-22T09:01:09.283Z,23.52
2024-04-22T09:02:09.268Z,23.53
2024-04-22T09:03:09.369Z,23.49
2024-04-22T09:04:09.333Z,23.46
2024-04-22T09:05:09.709Z,23.48
2024-04-22T09:06:09.395Z,23.44
2024-04-22T09:07:09.371Z,23.45
2024-04-22T09:08:09.418Z,23.45
2024-04-22T09:09:11.276Z,23.45
2024-04-22T09:10:35.030Z,23.45
2024-04-22T09:12:11.738Z,23.41
2024-04-22T09:13:09.672Z,23.41
2024-04-22T09:14:09.691Z,23.42
2024-04-22T09:15:09.560Z,23.42
2024-04-22T09:16:09.540Z,23.41
2024-04-22T09:17:09.802Z,23.41
2024-04-22T09:18:09.798Z,23.37
2024-04-22T09:19:09.735Z,23.37
2024-04-22T09:20:09.702Z,23.37
2024-04-22T09:21:09.860Z,23.38
2024-04-22T09:22:09.711Z,23.38
2024-04-22T09:23:09.766Z,23.37
2024-04-22T09:24:09.800Z,23.33
2024-04-22T09:25:09.724Z,23.37
2024-04-22T09:26:09.892Z,23.38
2024-04-22T09:27:09.762Z,23.37
2024-04-22T09:28:09.784Z,23.39
2024-04-22T09:29:09.952Z,23.39
2024-04-22T09:30:09.828Z,23.41
2024-04-22T09:31:09.973Z,23.38
2024-04-22T09:32:09.946Z,23.39
2024-04-22T09:33:10.026Z,23.39
2024-04-22T09:34:10.021Z,23.38
2024-04-22T09:35:13.583Z,23.39
2024-04-22T09:36:11.012Z,23.39
2024-04-22T09:37:09.980Z,23.38
2024-04-22T09:38:09.985Z,23.32
2024-04-22T09:39:09.988Z,23.28
2024-04-22T09:40:10.050Z,23.26
2024-04-22T09:41:10.098Z,23.25
2024-04-22T09:42:10.055Z,23.19
2024-04-22T09:43:10.068Z,23.15
2024-04-22T09:44:13.622Z,23.11
2024-04-22T09:45:11.172Z,23.07
2024-04-22T09:46:10.126Z,23.08
2024-04-22T09:47:10.355Z,23.04
2024-04-22T09:48:10.419Z,23.02
2024-04-22T09:49:10.439Z,23.05
2024-04-22T09:50:10.372Z,23.04
2024-04-22T09:51:10.230Z,23.07
2024-04-22T09:52:10.304Z,23.08
2024-04-22T09:53:10.433Z,23.11
2024-04-22T09:54:10.317Z,23.09
2024-04-22T09:55:10.374Z,23.11
2024-04-22T09:56:10.603Z,23.12
2024-04-22T09:57:10.380Z,23.14
2024-04-22T09:58:10.473Z,23.17
2024-04-22T09:59:10.733Z,23.17
2024-04-22T10:00:10.528Z,23.19
2024-04-22T10:01:10.529Z,23.21
2024-04-22T10:02:10.652Z,23.22
2024-04-22T10:03:10.665Z,23.22
2024-04-22T10:04:10.702Z,23.26
2024-04-22T10:05:10.911Z,23.28
2024-04-22T10:06:10.912Z,23.30
2024-04-22T10:07:10.923Z,23.32
2024-04-22T10:08:10.867Z,23.25
2024-04-22T10:09:10.874Z,23.26
2024-04-22T10:10:10.963Z,23.28
2024-04-22T10:11:11.604Z,23.28
2024-04-22T10:12:12.715Z,23.29
2024-04-22T10:13:11.110Z,23.30
2024-04-22T10:14:11.152Z,23.30
2024-04-22T10:15:11.203Z,23.35
2024-04-22T10:16:11.120Z,23.35
2024-04-22T10:17:13.057Z,23.32
2024-04-22T10:18:11.294Z,23.35
2024-04-22T10:19:11.425Z,23.33
2024-04-22T10:20:11.315Z,23.35
2024-04-22T10:21:11.212Z,23.35
2024-04-22T10:22:11.185Z,23.37
2024-04-22T10:23:11.246Z,23.38
2024-04-22T10:24:11.262Z,23.37
2024-04-22T10:25:11.259Z,23.37
2024-04-22T10:26:11.264Z,23.38
2024-04-22T10:27:12.812Z,23.37
2024-04-22T10:28:11.359Z,23.38
2024-04-22T10:29:11.406Z,23.39
2024-04-22T10:30:11.445Z,23.38
2024-04-22T10:31:11.577Z,23.41
2024-04-22T10:32:11.721Z,23.41
2024-04-22T10:33:11.858Z,23.39
2024-04-22T10:34:11.918Z,23.39
2024-04-22T10:35:11.952Z,23.39
2024-04-22T10:36:12.051Z,23.38
2024-04-22T10:37:12.108Z,23.41
2024-04-22T10:38:12.494Z,23.42
2024-04-22T10:39:12.497Z,23.38
2024-04-22T10:40:12.444Z,23.38
2024-04-22T10:41:12.494Z,23.38
2024-04-22T10:42:12.629Z,23.39
2024-04-22T10:43:12.933Z,23.38
2024-04-22T10:44:13.299Z,23.37
2024-04-22T10:45:12.881Z,23.35
2024-04-22T10:46:13.669Z,23.35
2024-04-22T10:47:13.083Z,23.33
2024-04-22T10:48:17.732Z,23.33
2024-04-22T10:49:14.200Z,23.32
2024-04-22T10:50:13.020Z,23.35
2024-04-22T10:51:13.001Z,23.35
2024-04-22T10:52:13.071Z,23.33
2024-04-22T10:53:13.037Z,23.30
2024-04-22T10:54:13.060Z,23.30
2024-04-22T10:55:13.113Z,23.37
2024-04-22T10:56:13.135Z,23.35
2024-04-22T10:57:13.135Z,23.30
2024-04-22T10:58:13.569Z,23.32
2024-04-22T10:59:13.171Z,23.33
2024-04-22T11:00:13.165Z,23.35
2024-04-22T11:01:13.617Z,23.33
2024-04-22T11:02:13.407Z,23.33
2024-04-22T11:03:13.318Z,23.33
2024-04-22T11:04:13.572Z,23.33
2024-04-22T11:05:14.438Z,23.32
2024-04-22T11:06:13.581Z,23.32
2024-04-22T11:07:13.596Z,23.33
2024-04-22T11:08:13.601Z,23.33
2024-04-22T11:09:13.654Z,23.30
2024-04-22T11:10:13.657Z,23.30
2024-04-22T11:11:13.755Z,23.33
2024-04-22T11:12:13.881Z,23.30
2024-04-22T11:13:14.161Z,23.30
2024-04-22T11:14:14.000Z,23.32
2024-04-22T11:15:14.027Z,23.32
2024-04-22T11:16:14.199Z,23.32
2024-04-22T11:17:14.248Z,23.32
2024-04-22T11:18:14.366Z,23.32
2024-04-22T11:19:14.435Z,23.32
2024-04-22T11:20:14.526Z,23.30
2024-04-22T11:21:14.583Z,23.32
2024-04-22T11:22:14.697Z,23.32
2024-04-22T11:23:14.774Z,23.30
2024-04-22T11:24:14.848Z,23.30
2024-04-22T11:25:14.973Z,23.30
2024-04-22T11:26:15.031Z,23.30
2024-04-22T11:27:15.133Z,23.30
2024-04-22T11:28:15.228Z,23.29
2024-04-22T11:29:15.229Z,23.29
2024-04-22T11:30:15.307Z,23.28
2024-04-22T11:31:15.430Z,23.30
2024-04-22T11:32:15.517Z,23.28
2024-04-22T11:33:15.630Z,23.32
2024-04-22T11:34:15.716Z,23.30
2024-04-22T11:35:15.781Z,23.29
2024-04-22T11:36:15.845Z,23.32
2024-04-22T11:37:15.944Z,23.30
2024-04-22T11:38:16.041Z,23.30
2024-04-22T11:39:16.526Z,23.28
2024-04-22T11:40:16.188Z,23.28
2024-04-22T11:41:16.150Z,23.30
2024-04-22T11:42:16.210Z,23.29
2024-04-22T11:43:16.267Z,23.30
2024-04-22T11:44:16.280Z,23.30
2024-04-22T11:45:16.401Z,23.28
2024-04-22T11:46:16.381Z,23.30
2024-04-22T11:47:16.425Z,23.29
2024-04-22T11:48:16.474Z,23.29
2024-04-22T11:49:16.488Z,23.32
2024-04-22T11:50:16.494Z,23.32
2024-04-22T11:51:16.529Z,23.35
2024-04-22T11:52:16.645Z,23.30
2024-04-22T11:53:23.586Z,23.30
2024-04-22T11:54:18.143Z,23.32
2024-04-22T11:55:16.888Z,23.30
2024-04-22T11:56:16.768Z,23.30
2024-04-22T11:57:16.792Z,23.30
2024-04-22T11:58:16.838Z,23.30
2024-04-22T11:59:16.818Z,23.29
2024-04-22T12:00:16.812Z,23.30
2024-04-22T12:01:16.855Z,23.29
2024-04-22T12:02:16.866Z,23.30
2024-04-22T12:03:16.864Z,23.30
2024-04-22T12:04:16.997Z,23.28
2024-04-22T12:05:17.048Z,23.28
2024-04-22T12:06:16.966Z,23.29
2024-04-22T12:07:16.970Z,23.28
2024-04-22T12:08:17.000Z,23.28
2024-04-22T12:09:17.003Z,23.29
2024-04-22T12:10:17.032Z,23.29
2024-04-22T12:11:17.074Z,23.29
2024-04-22T12:12:17.057Z,23.32
2024-04-22T12:13:17.200Z,23.30
2024-04-22T12:14:17.232Z,23.30
2024-04-22T12:15:17.346Z,23.32
2024-04-22T12:16:17.474Z,23.29
2024-04-22T12:17:17.615Z,23.30
2024-04-22T12:18:17.563Z,23.29
2024-04-22T12:19:17.814Z,23.28
2024-04-22T12:20:17.778Z,23.30
2024-04-22T12:21:17.845Z,23.26
2024-04-22T12:22:17.955Z,23.28
2024-04-22T12:23:18.020Z,23.30
2024-04-22T12:24:18.090Z,23.33
2024-04-22T12:25:18.244Z,23.35
2024-04-22T12:26:18.237Z,23.35
2024-04-22T12:27:18.367Z,23.33
2024-04-22T12:28:22.180Z,23.38
2024-04-22T12:29:18.464Z,23.38
2024-04-22T12:30:18.512Z,23.42
2024-04-22T12:31:18.518Z,23.45
2024-04-22T12:32:18.536Z,23.44
2024-04-22T12:33:18.558Z,23.46
2024-04-22T12:34:18.639Z,23.52
2024-04-22T12:35:18.568Z,23.46
2024-04-22T12:36:18.568Z,23.52
2024-04-22T12:37:18.601Z,23.56
2024-04-22T12:38:18.640Z,23.52
2024-04-22T12:39:18.582Z,23.58
2024-04-22T12:40:18.620Z,23.63
2024-04-22T12:41:19.585Z,23.65
2024-04-22T12:42:18.606Z,23.63
2024-04-22T12:43:18.677Z,23.65
2024-04-22T12:44:18.647Z,23.66
2024-04-22T12:45:18.675Z,23.68
2024-04-22T12:46:18.668Z,23.72
2024-04-22T12:47:18.726Z,23.68
2024-04-22T12:48:18.714Z,23.76
2024-04-22T12:49:18.694Z,23.77
2024-04-22T12:50:18.779Z,23.79
2024-04-22T12:51:18.917Z,23.77
2024-04-22T12:54:39.821Z,23.02
2024-04-22T12:55:39.774Z,23.18
2024-04-22T12:56:39.736Z,23.32